sensor_id;sensor_type;location;lat;lon;timestamp;P1;durP1;ratioP1;P2;durP2;ratioP2
12042;SDS011;6082;49.306;12.862;2023-11-22T00:00:11;2.97;;;1.73;;
12042;SDS011;6082;49.306;12.862;2023-11-22T00:02:38;2.67;;;1.90;;
12042;SDS011;6082;49.306;12.862;2023-11-22T00:05:04;2.47;;;1.70;;
12042;SDS011;6082;49.306;12.862;2023-11-22T00:07:31;2.67;;;1.70;;
12042;SDS011;6082;49.306;12.862;2023-11-22T00:09:57;1.97;;;1.10;;
12042;SDS011;6082;49.306;12.862;2023-11-22T00:12:23;2.63;;;1.90;;
12042;SDS011;6082;49.306;12.862;2023-11-22T00:14:49;3.67;;;2.07;;
12042;SDS011;6082;49.306;12.862;2023-11-22T00:17:16;2.23;;;1.50;;
12042;SDS011;6082;49.306;12.862;2023-11-22T00:19:44;2.37;;;1.57;;
12042;SDS011;6082;49.306;12.862;2023-11-22T00:22:13;3.97;;;1.70;;
12042;SDS011;6082;49.306;12.862;2023-11-22T00:24:40;3.27;;;1.70;;
12042;SDS011;6082;49.306;12.862;2023-11-22T00:27:06;1.70;;;1.53;;
12042;SDS011;6082;49.306;12.862;2023-11-22T00:29:32;1.70;;;1.47;;
12042;SDS011;6082;49.306;12.862;2023-11-22T00:31:58;3.00;;;1.93;;
12042;SDS011;6082;49.306;12.862;2023-11-22T00:34:25;2.63;;;1.83;;
12042;SDS011;6082;49.306;12.862;2023-11-22T00:36:51;4.33;;;1.90;;
12042;SDS011;6082;49.306;12.862;2023-11-22T00:39:17;2.37;;;1.47;;
12042;SDS011;6082;49.306;12.862;2023-11-22T00:41:43;3.30;;;1.50;;
12042;SDS011;6082;49.306;12.862;2023-11-22T00:44:10;2.57;;;1.57;;
12042;SDS011;6082;49.306;12.862;2023-11-22T00:46:36;3.07;;;1.83;;
12042;SDS011;6082;49.306;12.862;2023-11-22T00:49:05;2.87;;;1.60;;
12042;SDS011;6082;49.306;12.862;2023-11-22T00:51:31;1.67;;;1.57;;
12042;SDS011;6082;49.306;12.862;2023-11-22T00:54:00;3.70;;;2.27;;
12042;SDS011;6082;49.306;12.862;2023-11-22T00:56:26;3.03;;;1.67;;
12042;SDS011;6082;49.306;12.862;2023-11-22T00:58:52;2.27;;;1.53;;
12042;SDS011;6082;49.306;12.862;2023-11-22T01:01:21;3.20;;;1.73;;
12042;SDS011;6082;49.306;12.862;2023-11-22T01:03:47;2.90;;;1.73;;
12042;SDS011;6082;49.306;12.862;2023-11-22T01:06:13;2.70;;;1.67;;
12042;SDS011;6082;49.306;12.862;2023-11-22T01:08:39;1.97;;;1.40;;
12042;SDS011;6082;49.306;12.862;2023-11-22T01:11:05;2.90;;;1.50;;
12042;SDS011;6082;49.306;12.862;2023-11-22T01:13:31;1.80;;;1.03;;
12042;SDS011;6082;49.306;12.862;2023-11-22T01:15:58;2.27;;;1.40;;
12042;SDS011;6082;49.306;12.862;2023-11-22T01:18:24;2.00;;;1.67;;
12042;SDS011;6082;49.306;12.862;2023-11-22T01:20:49;4.33;;;1.67;;
12042;SDS011;6082;49.306;12.862;2023-11-22T01:23:15;3.00;;;1.60;;
12042;SDS011;6082;49.306;12.862;2023-11-22T01:25:41;1.73;;;1.50;;
12042;SDS011;6082;49.306;12.862;2023-11-22T01:28:07;1.53;;;1.10;;
12042;SDS011;6082;49.306;12.862;2023-11-22T01:30:32;3.77;;;1.77;;
12042;SDS011;6082;49.306;12.862;2023-11-22T01:32:58;1.70;;;1.20;;
12042;SDS011;6082;49.306;12.862;2023-11-22T01:35:24;2.93;;;1.63;;
12042;SDS011;6082;49.306;12.862;2023-11-22T01:37:50;4.87;;;1.67;;
12042;SDS011;6082;49.306;12.862;2023-11-22T01:40:17;1.47;;;1.23;;
12042;SDS011;6082;49.306;12.862;2023-11-22T01:42:44;1.90;;;1.40;;
12042;SDS011;6082;49.306;12.862;2023-11-22T01:45:11;2.87;;;1.40;;
12042;SDS011;6082;49.306;12.862;2023-11-22T01:47:37;1.80;;;1.10;;
12042;SDS011;6082;49.306;12.862;2023-11-22T01:50:04;3.00;;;2.00;;
12042;SDS011;6082;49.306;12.862;2023-11-22T01:52:33;1.77;;;1.10;;
12042;SDS011;6082;49.306;12.862;2023-11-22T01:55:00;1.50;;;1.20;;
12042;SDS011;6082;49.306;12.862;2023-11-22T01:57:29;1.63;;;1.40;;
12042;SDS011;6082;49.306;12.862;2023-11-22T01:59:58;2.10;;;1.30;;
12042;SDS011;6082;49.306;12.862;2023-11-22T02:02:33;2.67;;;1.13;;
12042;SDS011;6082;49.306;12.862;2023-11-22T02:04:59;2.03;;;1.13;;
12042;SDS011;6082;49.306;12.862;2023-11-22T02:07:28;2.67;;;1.30;;
12042;SDS011;6082;49.306;12.862;2023-11-22T02:09:54;2.00;;;1.23;;
12042;SDS011;6082;49.306;12.862;2023-11-22T02:12:19;1.90;;;1.20;;
12042;SDS011;6082;49.306;12.862;2023-11-22T02:14:45;2.00;;;1.23;;
12042;SDS011;6082;49.306;12.862;2023-11-22T02:17:11;1.27;;;1.17;;
12042;SDS011;6082;49.306;12.862;2023-11-22T02:19:37;3.97;;;1.10;;
12042;SDS011;6082;49.306;12.862;2023-11-22T02:22:03;2.37;;;1.20;;
12042;SDS011;6082;49.306;12.862;2023-11-22T02:24:29;1.93;;;1.30;;
12042;SDS011;6082;49.306;12.862;2023-11-22T02:26:54;1.60;;;1.07;;
12042;SDS011;6082;49.306;12.862;2023-11-22T02:29:20;2.00;;;1.27;;
12042;SDS011;6082;49.306;12.862;2023-11-22T02:31:46;2.77;;;1.50;;
12042;SDS011;6082;49.306;12.862;2023-11-22T02:34:12;1.57;;;1.20;;
12042;SDS011;6082;49.306;12.862;2023-11-22T02:36:41;2.60;;;1.20;;
12042;SDS011;6082;49.306;12.862;2023-11-22T02:39:08;2.07;;;1.37;;
12042;SDS011;6082;49.306;12.862;2023-11-22T02:41:34;1.43;;;1.00;;
12042;SDS011;6082;49.306;12.862;2023-11-22T02:44:00;1.80;;;1.10;;
12042;SDS011;6082;49.306;12.862;2023-11-22T02:46:26;1.90;;;1.13;;
12042;SDS011;6082;49.306;12.862;2023-11-22T02:48:52;2.00;;;1.30;;
12042;SDS011;6082;49.306;12.862;2023-11-22T02:51:19;2.87;;;1.17;;
12042;SDS011;6082;49.306;12.862;2023-11-22T02:53:47;1.93;;;0.90;;
12042;SDS011;6082;49.306;12.862;2023-11-22T02:56:13;1.83;;;1.10;;
12042;SDS011;6082;49.306;12.862;2023-11-22T02:58:40;1.03;;;0.93;;
12042;SDS011;6082;49.306;12.862;2023-11-22T03:01:06;1.50;;;0.90;;
12042;SDS011;6082;49.306;12.862;2023-11-22T03:03:32;1.60;;;0.90;;
12042;SDS011;6082;49.306;12.862;2023-11-22T03:05:59;1.77;;;1.20;;
12042;SDS011;6082;49.306;12.862;2023-11-22T03:08:24;1.73;;;1.40;;
12042;SDS011;6082;49.306;12.862;2023-11-22T03:10:50;1.87;;;1.23;;
12042;SDS011;6082;49.306;12.862;2023-11-22T03:13:16;2.20;;;1.30;;
12042;SDS011;6082;49.306;12.862;2023-11-22T03:15:43;1.93;;;1.23;;
12042;SDS011;6082;49.306;12.862;2023-11-22T03:18:09;1.47;;;1.17;;
12042;SDS011;6082;49.306;12.862;2023-11-22T03:20:36;1.03;;;0.93;;
12042;SDS011;6082;49.306;12.862;2023-11-22T03:23:02;1.23;;;1.00;;
12042;SDS011;6082;49.306;12.862;2023-11-22T03:25:29;1.00;;;0.93;;
12042;SDS011;6082;49.306;12.862;2023-11-22T03:27:54;1.10;;;1.00;;
12042;SDS011;6082;49.306;12.862;2023-11-22T03:30:21;0.83;;;0.80;;
12042;SDS011;6082;49.306;12.862;2023-11-22T03:32:46;1.97;;;1.47;;
12042;SDS011;6082;49.306;12.862;2023-11-22T03:35:13;1.87;;;1.07;;
12042;SDS011;6082;49.306;12.862;2023-11-22T03:37:39;2.10;;;1.27;;
12042;SDS011;6082;49.306;12.862;2023-11-22T03:40:05;1.00;;;0.90;;
12042;SDS011;6082;49.306;12.862;2023-11-22T03:42:31;2.90;;;1.10;;
12042;SDS011;6082;49.306;12.862;2023-11-22T03:44:56;1.70;;;1.27;;
12042;SDS011;6082;49.306;12.862;2023-11-22T03:47:24;2.07;;;1.50;;
12042;SDS011;6082;49.306;12.862;2023-11-22T03:49:50;2.37;;;1.20;;
12042;SDS011;6082;49.306;12.862;2023-11-22T03:52:16;1.70;;;1.10;;
12042;SDS011;6082;49.306;12.862;2023-11-22T03:54:41;1.43;;;1.20;;
12042;SDS011;6082;49.306;12.862;2023-11-22T03:57:07;2.27;;;1.53;;
12042;SDS011;6082;49.306;12.862;2023-11-22T03:59:34;1.60;;;1.30;;
12042;SDS011;6082;49.306;12.862;2023-11-22T04:02:00;2.10;;;1.30;;
12042;SDS011;6082;49.306;12.862;2023-11-22T04:04:26;2.60;;;1.60;;
12042;SDS011;6082;49.306;12.862;2023-11-22T04:06:51;2.13;;;1.60;;
12042;SDS011;6082;49.306;12.862;2023-11-22T04:09:18;3.77;;;1.23;;
12042;SDS011;6082;49.306;12.862;2023-11-22T04:11:45;1.37;;;1.27;;
12042;SDS011;6082;49.306;12.862;2023-11-22T04:14:11;1.70;;;1.13;;
12042;SDS011;6082;49.306;12.862;2023-11-22T04:16:37;3.47;;;1.50;;
12042;SDS011;6082;49.306;12.862;2023-11-22T04:19:03;1.47;;;1.27;;
12042;SDS011;6082;49.306;12.862;2023-11-22T04:21:29;2.37;;;1.40;;
12042;SDS011;6082;49.306;12.862;2023-11-22T04:23:54;1.90;;;1.43;;
12042;SDS011;6082;49.306;12.862;2023-11-22T04:26:20;2.90;;;1.70;;
12042;SDS011;6082;49.306;12.862;2023-11-22T04:28:47;2.17;;;1.47;;
12042;SDS011;6082;49.306;12.862;2023-11-22T04:31:12;2.60;;;1.73;;
12042;SDS011;6082;49.306;12.862;2023-11-22T04:33:38;1.87;;;1.67;;
12042;SDS011;6082;49.306;12.862;2023-11-22T04:36:04;2.07;;;1.60;;
12042;SDS011;6082;49.306;12.862;2023-11-22T04:38:30;2.30;;;1.83;;
12042;SDS011;6082;49.306;12.862;2023-11-22T04:40:56;2.27;;;1.60;;
12042;SDS011;6082;49.306;12.862;2023-11-22T04:43:21;2.07;;;1.83;;
12042;SDS011;6082;49.306;12.862;2023-11-22T04:45:48;2.83;;;1.73;;
12042;SDS011;6082;49.306;12.862;2023-11-22T04:48:15;2.80;;;1.57;;
12042;SDS011;6082;49.306;12.862;2023-11-22T04:50:43;1.57;;;1.40;;
12042;SDS011;6082;49.306;12.862;2023-11-22T04:53:12;1.97;;;1.67;;
12042;SDS011;6082;49.306;12.862;2023-11-22T04:55:38;2.33;;;1.47;;
12042;SDS011;6082;49.306;12.862;2023-11-22T04:58:04;2.50;;;1.83;;
12042;SDS011;6082;49.306;12.862;2023-11-22T05:00:29;2.80;;;1.70;;
12042;SDS011;6082;49.306;12.862;2023-11-22T05:02:55;2.23;;;1.60;;
12042;SDS011;6082;49.306;12.862;2023-11-22T05:05:21;2.53;;;1.50;;
12042;SDS011;6082;49.306;12.862;2023-11-22T05:07:47;2.27;;;1.50;;
12042;SDS011;6082;49.306;12.862;2023-11-22T05:10:13;2.37;;;1.80;;
12042;SDS011;6082;49.306;12.862;2023-11-22T05:12:39;2.63;;;1.90;;
12042;SDS011;6082;49.306;12.862;2023-11-22T05:15:08;2.10;;;1.60;;
12042;SDS011;6082;49.306;12.862;2023-11-22T05:17:34;2.20;;;2.00;;
12042;SDS011;6082;49.306;12.862;2023-11-22T05:20:00;3.17;;;2.17;;
12042;SDS011;6082;49.306;12.862;2023-11-22T05:22:26;3.03;;;1.97;;
12042;SDS011;6082;49.306;12.862;2023-11-22T05:24:52;3.10;;;2.23;;
12042;SDS011;6082;49.306;12.862;2023-11-22T05:27:18;2.20;;;1.97;;
12042;SDS011;6082;49.306;12.862;2023-11-22T05:29:43;2.60;;;1.87;;
12042;SDS011;6082;49.306;12.862;2023-11-22T05:32:09;4.30;;;2.40;;
12042;SDS011;6082;49.306;12.862;2023-11-22T05:34:36;4.00;;;2.70;;
12042;SDS011;6082;49.306;12.862;2023-11-22T05:37:02;3.93;;;2.47;;
12042;SDS011;6082;49.306;12.862;2023-11-22T05:39:30;2.33;;;2.10;;
12042;SDS011;6082;49.306;12.862;2023-11-22T05:41:56;4.57;;;2.40;;
12042;SDS011;6082;49.306;12.862;2023-11-22T05:44:22;3.43;;;1.93;;
12042;SDS011;6082;49.306;12.862;2023-11-22T05:46:48;3.00;;;2.13;;
12042;SDS011;6082;49.306;12.862;2023-11-22T05:49:13;3.17;;;2.07;;
12042;SDS011;6082;49.306;12.862;2023-11-22T05:51:39;3.13;;;2.27;;
12042;SDS011;6082;49.306;12.862;2023-11-22T05:54:05;4.27;;;2.50;;
12042;SDS011;6082;49.306;12.862;2023-11-22T05:56:31;3.97;;;2.60;;
12042;SDS011;6082;49.306;12.862;2023-11-22T05:58:57;3.60;;;2.50;;
12042;SDS011;6082;49.306;12.862;2023-11-22T06:01:24;4.40;;;2.30;;
12042;SDS011;6082;49.306;12.862;2023-11-22T06:03:51;4.63;;;3.10;;
12042;SDS011;6082;49.306;12.862;2023-11-22T06:06:18;4.40;;;3.30;;
12042;SDS011;6082;49.306;12.862;2023-11-22T06:08:46;6.60;;;3.23;;
12042;SDS011;6082;49.306;12.862;2023-11-22T06:11:12;3.97;;;2.67;;
12042;SDS011;6082;49.306;12.862;2023-11-22T06:13:40;6.47;;;3.63;;
12042;SDS011;6082;49.306;12.862;2023-11-22T06:16:08;6.50;;;3.30;;
12042;SDS011;6082;49.306;12.862;2023-11-22T06:18:34;4.40;;;2.90;;
12042;SDS011;6082;49.306;12.862;2023-11-22T06:21:05;3.43;;;3.10;;
12042;SDS011;6082;49.306;12.862;2023-11-22T06:23:31;6.50;;;3.20;;
12042;SDS011;6082;49.306;12.862;2023-11-22T06:25:58;4.83;;;3.03;;
12042;SDS011;6082;49.306;12.862;2023-11-22T06:28:23;6.00;;;3.20;;
12042;SDS011;6082;49.306;12.862;2023-11-22T06:30:49;3.90;;;2.63;;
12042;SDS011;6082;49.306;12.862;2023-11-22T06:33:15;3.73;;;3.20;;
12042;SDS011;6082;49.306;12.862;2023-11-22T06:35:41;5.63;;;3.20;;
12042;SDS011;6082;49.306;12.862;2023-11-22T06:38:07;5.00;;;2.97;;
12042;SDS011;6082;49.306;12.862;2023-11-22T06:40:33;5.60;;;3.87;;
12042;SDS011;6082;49.306;12.862;2023-11-22T06:42:59;7.63;;;3.83;;
12042;SDS011;6082;49.306;12.862;2023-11-22T06:45:25;4.67;;;3.00;;
12042;SDS011;6082;49.306;12.862;2023-11-22T06:47:51;6.20;;;3.27;;
12042;SDS011;6082;49.306;12.862;2023-11-22T06:50:17;5.10;;;3.17;;
12042;SDS011;6082;49.306;12.862;2023-11-22T06:52:43;4.30;;;2.77;;
12042;SDS011;6082;49.306;12.862;2023-11-22T06:55:10;7.67;;;3.93;;
12042;SDS011;6082;49.306;12.862;2023-11-22T06:57:36;6.83;;;2.90;;
12042;SDS011;6082;49.306;12.862;2023-11-22T07:00:03;5.63;;;3.37;;
12042;SDS011;6082;49.306;12.862;2023-11-22T07:02:30;7.47;;;3.50;;
12042;SDS011;6082;49.306;12.862;2023-11-22T07:05:00;5.93;;;3.67;;
12042;SDS011;6082;49.306;12.862;2023-11-22T07:07:26;6.20;;;3.10;;
12042;SDS011;6082;49.306;12.862;2023-11-22T07:09:52;8.00;;;4.00;;
12042;SDS011;6082;49.306;12.862;2023-11-22T07:12:17;6.43;;;3.57;;
12042;SDS011;6082;49.306;12.862;2023-11-22T07:14:44;7.30;;;4.43;;
12042;SDS011;6082;49.306;12.862;2023-11-22T07:17:10;5.57;;;3.80;;
12042;SDS011;6082;49.306;12.862;2023-11-22T07:19:35;7.27;;;4.30;;
12042;SDS011;6082;49.306;12.862;2023-11-22T07:22:06;6.37;;;4.10;;
12042;SDS011;6082;49.306;12.862;2023-11-22T07:24:41;6.00;;;3.67;;
12042;SDS011;6082;49.306;12.862;2023-11-22T07:27:16;5.27;;;3.40;;
12042;SDS011;6082;49.306;12.862;2023-11-22T07:29:44;5.93;;;3.67;;
12042;SDS011;6082;49.306;12.862;2023-11-22T07:32:10;6.33;;;3.93;;
12042;SDS011;6082;49.306;12.862;2023-11-22T07:34:37;5.93;;;4.37;;
12042;SDS011;6082;49.306;12.862;2023-11-22T07:37:07;8.37;;;4.53;;
12042;SDS011;6082;49.306;12.862;2023-11-22T07:39:34;6.00;;;3.40;;
12042;SDS011;6082;49.306;12.862;2023-11-22T07:42:01;6.33;;;3.90;;
12042;SDS011;6082;49.306;12.862;2023-11-22T07:44:27;7.20;;;4.00;;
12042;SDS011;6082;49.306;12.862;2023-11-22T07:46:53;5.03;;;3.80;;
12042;SDS011;6082;49.306;12.862;2023-11-22T07:49:19;5.83;;;3.87;;
12042;SDS011;6082;49.306;12.862;2023-11-22T07:51:48;5.60;;;3.50;;
12042;SDS011;6082;49.306;12.862;2023-11-22T07:54:20;5.90;;;3.70;;
12042;SDS011;6082;49.306;12.862;2023-11-22T07:56:48;7.60;;;4.40;;
12042;SDS011;6082;49.306;12.862;2023-11-22T07:59:19;9.40;;;4.13;;
12042;SDS011;6082;49.306;12.862;2023-11-22T08:01:45;4.83;;;3.37;;
12042;SDS011;6082;49.306;12.862;2023-11-22T08:04:14;5.93;;;3.77;;
12042;SDS011;6082;49.306;12.862;2023-11-22T08:06:41;9.23;;;4.50;;
12042;SDS011;6082;49.306;12.862;2023-11-22T08:09:07;10.00;;;4.47;;
12042;SDS011;6082;49.306;12.862;2023-11-22T08:11:34;6.07;;;4.63;;
12042;SDS011;6082;49.306;12.862;2023-11-22T08:14:01;7.90;;;4.77;;
12042;SDS011;6082;49.306;12.862;2023-11-22T08:16:27;9.27;;;4.57;;
12042;SDS011;6082;49.306;12.862;2023-11-22T08:18:53;8.93;;;4.97;;
12042;SDS011;6082;49.306;12.862;2023-11-22T08:21:19;9.30;;;5.13;;
12042;SDS011;6082;49.306;12.862;2023-11-22T08:23:48;9.37;;;5.10;;
12042;SDS011;6082;49.306;12.862;2023-11-22T08:26:14;8.27;;;4.67;;
12042;SDS011;6082;49.306;12.862;2023-11-22T08:28:40;8.10;;;5.20;;
12042;SDS011;6082;49.306;12.862;2023-11-22T08:31:06;6.70;;;4.40;;
12042;SDS011;6082;49.306;12.862;2023-11-22T08:33:35;6.67;;;4.47;;
12042;SDS011;6082;49.306;12.862;2023-11-22T08:36:01;7.00;;;4.50;;
12042;SDS011;6082;49.306;12.862;2023-11-22T08:38:29;9.77;;;4.50;;
12042;SDS011;6082;49.306;12.862;2023-11-22T08:41:00;7.80;;;4.80;;
12042;SDS011;6082;49.306;12.862;2023-11-22T08:43:33;8.97;;;4.47;;
12042;SDS011;6082;49.306;12.862;2023-11-22T08:45:59;11.23;;;5.50;;
12042;SDS011;6082;49.306;12.862;2023-11-22T08:48:25;9.20;;;4.90;;
12042;SDS011;6082;49.306;12.862;2023-11-22T08:50:51;9.87;;;5.80;;
12042;SDS011;6082;49.306;12.862;2023-11-22T08:53:18;11.53;;;6.43;;
12042;SDS011;6082;49.306;12.862;2023-11-22T08:55:45;10.13;;;5.00;;
12042;SDS011;6082;49.306;12.862;2023-11-22T08:58:12;10.40;;;5.73;;
12042;SDS011;6082;49.306;12.862;2023-11-22T09:00:38;10.33;;;6.43;;
12042;SDS011;6082;49.306;12.862;2023-11-22T09:03:06;13.43;;;6.77;;
12042;SDS011;6082;49.306;12.862;2023-11-22T09:05:41;11.57;;;5.63;;
12042;SDS011;6082;49.306;12.862;2023-11-22T09:08:08;10.83;;;6.03;;
12042;SDS011;6082;49.306;12.862;2023-11-22T09:10:40;11.93;;;5.67;;
12042;SDS011;6082;49.306;12.862;2023-11-22T09:13:10;10.33;;;5.53;;
12042;SDS011;6082;49.306;12.862;2023-11-22T09:15:35;11.47;;;6.00;;
12042;SDS011;6082;49.306;12.862;2023-11-22T09:18:03;14.73;;;6.73;;
12042;SDS011;6082;49.306;12.862;2023-11-22T09:20:30;13.20;;;6.93;;
12042;SDS011;6082;49.306;12.862;2023-11-22T09:22:55;14.63;;;7.47;;
12042;SDS011;6082;49.306;12.862;2023-11-22T09:25:22;15.33;;;7.37;;
12042;SDS011;6082;49.306;12.862;2023-11-22T09:27:53;13.33;;;6.10;;
12042;SDS011;6082;49.306;12.862;2023-11-22T09:30:27;14.90;;;6.80;;
12042;SDS011;6082;49.306;12.862;2023-11-22T09:33:01;14.67;;;7.63;;
12042;SDS011;6082;49.306;12.862;2023-11-22T09:35:28;14.17;;;7.73;;
12042;SDS011;6082;49.306;12.862;2023-11-22T09:37:55;13.10;;;7.60;;
12042;SDS011;6082;49.306;12.862;2023-11-22T09:40:24;15.70;;;8.23;;
12042;SDS011;6082;49.306;12.862;2023-11-22T09:42:52;14.60;;;7.60;;
12042;SDS011;6082;49.306;12.862;2023-11-22T09:45:19;14.97;;;7.33;;
12042;SDS011;6082;49.306;12.862;2023-11-22T09:47:45;15.23;;;8.00;;
12042;SDS011;6082;49.306;12.862;2023-11-22T09:50:18;16.50;;;8.10;;
12042;SDS011;6082;49.306;12.862;2023-11-22T09:52:50;12.23;;;7.30;;
12042;SDS011;6082;49.306;12.862;2023-11-22T09:55:19;16.17;;;7.87;;
12042;SDS011;6082;49.306;12.862;2023-11-22T09:57:47;19.40;;;7.90;;
12042;SDS011;6082;49.306;12.862;2023-11-22T10:00:14;13.27;;;6.93;;
12042;SDS011;6082;49.306;12.862;2023-11-22T10:02:43;12.27;;;6.90;;
12042;SDS011;6082;49.306;12.862;2023-11-22T10:05:10;14.90;;;7.63;;
12042;SDS011;6082;49.306;12.862;2023-11-22T10:07:36;11.10;;;6.50;;
12042;SDS011;6082;49.306;12.862;2023-11-22T10:10:03;12.37;;;6.67;;
12042;SDS011;6082;49.306;12.862;2023-11-22T10:12:30;10.90;;;6.40;;
12042;SDS011;6082;49.306;12.862;2023-11-22T10:15:10;11.40;;;5.60;;
12042;SDS011;6082;49.306;12.862;2023-11-22T10:17:37;11.37;;;5.83;;
12042;SDS011;6082;49.306;12.862;2023-11-22T10:20:03;11.93;;;5.60;;
12042;SDS011;6082;49.306;12.862;2023-11-22T10:22:29;11.90;;;6.90;;
12042;SDS011;6082;49.306;12.862;2023-11-22T10:24:58;16.87;;;7.50;;
12042;SDS011;6082;49.306;12.862;2023-11-22T10:27:25;15.63;;;7.40;;
12042;SDS011;6082;49.306;12.862;2023-11-22T10:29:51;11.83;;;7.00;;
12042;SDS011;6082;49.306;12.862;2023-11-22T10:32:17;11.47;;;6.40;;
12042;SDS011;6082;49.306;12.862;2023-11-22T10:34:43;13.70;;;6.87;;
12042;SDS011;6082;49.306;12.862;2023-11-22T10:37:09;14.83;;;6.70;;
12042;SDS011;6082;49.306;12.862;2023-11-22T10:39:35;13.57;;;6.37;;
12042;SDS011;6082;49.306;12.862;2023-11-22T10:42:01;15.63;;;8.47;;
12042;SDS011;6082;49.306;12.862;2023-11-22T10:44:33;13.03;;;7.00;;
12042;SDS011;6082;49.306;12.862;2023-11-22T10:46:59;14.83;;;7.17;;
12042;SDS011;6082;49.306;12.862;2023-11-22T10:49:25;14.37;;;7.37;;
12042;SDS011;6082;49.306;12.862;2023-11-22T10:51:52;15.57;;;8.30;;
12042;SDS011;6082;49.306;12.862;2023-11-22T10:54:19;15.47;;;8.07;;
12042;SDS011;6082;49.306;12.862;2023-11-22T10:56:48;15.30;;;7.97;;
12042;SDS011;6082;49.306;12.862;2023-11-22T10:59:21;16.43;;;7.40;;
12042;SDS011;6082;49.306;12.862;2023-11-22T11:01:48;16.30;;;7.93;;
12042;SDS011;6082;49.306;12.862;2023-11-22T11:04:24;10.57;;;6.33;;
12042;SDS011;6082;49.306;12.862;2023-11-22T11:06:58;15.87;;;7.67;;
12042;SDS011;6082;49.306;12.862;2023-11-22T11:09:26;12.40;;;6.90;;
12042;SDS011;6082;49.306;12.862;2023-11-22T11:11:57;16.23;;;7.20;;
12042;SDS011;6082;49.306;12.862;2023-11-22T11:14:28;16.43;;;7.93;;
12042;SDS011;6082;49.306;12.862;2023-11-22T11:16:54;14.03;;;7.13;;
12042;SDS011;6082;49.306;12.862;2023-11-22T11:19:23;13.80;;;7.27;;
12042;SDS011;6082;49.306;12.862;2023-11-22T11:21:50;14.93;;;8.00;;
12042;SDS011;6082;49.306;12.862;2023-11-22T11:24:16;17.53;;;9.03;;
12042;SDS011;6082;49.306;12.862;2023-11-22T11:26:49;14.33;;;6.77;;
12042;SDS011;6082;49.306;12.862;2023-11-22T11:29:32;16.77;;;8.30;;
12042;SDS011;6082;49.306;12.862;2023-11-22T11:31:59;13.77;;;7.27;;
12042;SDS011;6082;49.306;12.862;2023-11-22T11:34:25;14.30;;;7.57;;
12042;SDS011;6082;49.306;12.862;2023-11-22T11:36:53;13.10;;;7.07;;
12042;SDS011;6082;49.306;12.862;2023-11-22T11:39:24;17.10;;;8.43;;
12042;SDS011;6082;49.306;12.862;2023-11-22T11:42:12;11.17;;;6.60;;
12042;SDS011;6082;49.306;12.862;2023-11-22T11:44:50;14.23;;;6.97;;
12042;SDS011;6082;49.306;12.862;2023-11-22T11:47:36;13.37;;;7.40;;
12042;SDS011;6082;49.306;12.862;2023-11-22T11:50:02;16.23;;;8.13;;
12042;SDS011;6082;49.306;12.862;2023-11-22T11:52:29;15.67;;;6.90;;
12042;SDS011;6082;49.306;12.862;2023-11-22T11:54:56;17.10;;;8.07;;
12042;SDS011;6082;49.306;12.862;2023-11-22T11:57:23;16.83;;;7.67;;
12042;SDS011;6082;49.306;12.862;2023-11-22T11:59:48;17.70;;;7.53;;
12042;SDS011;6082;49.306;12.862;2023-11-22T12:02:15;16.67;;;8.03;;
12042;SDS011;6082;49.306;12.862;2023-11-22T12:04:41;14.73;;;7.67;;
12042;SDS011;6082;49.306;12.862;2023-11-22T12:07:10;18.27;;;8.60;;
12042;SDS011;6082;49.306;12.862;2023-11-22T12:09:37;18.90;;;8.27;;
12042;SDS011;6082;49.306;12.862;2023-11-22T12:12:03;19.40;;;8.93;;
12042;SDS011;6082;49.306;12.862;2023-11-22T12:14:29;14.53;;;7.93;;
12042;SDS011;6082;49.306;12.862;2023-11-22T12:16:54;17.27;;;8.30;;
12042;SDS011;6082;49.306;12.862;2023-11-22T12:19:24;13.97;;;7.53;;
12042;SDS011;6082;49.306;12.862;2023-11-22T12:21:52;15.30;;;7.13;;
12042;SDS011;6082;49.306;12.862;2023-11-22T12:24:18;12.67;;;6.93;;
12042;SDS011;6082;49.306;12.862;2023-11-22T12:26:48;13.97;;;7.10;;
12042;SDS011;6082;49.306;12.862;2023-11-22T12:29:15;17.13;;;8.03;;
12042;SDS011;6082;49.306;12.862;2023-11-22T12:31:45;15.97;;;7.70;;
12042;SDS011;6082;49.306;12.862;2023-11-22T12:34:12;14.40;;;7.13;;
12042;SDS011;6082;49.306;12.862;2023-11-22T12:36:41;16.67;;;8.27;;
12042;SDS011;6082;49.306;12.862;2023-11-22T12:39:10;17.30;;;8.13;;
12042;SDS011;6082;49.306;12.862;2023-11-22T12:41:47;16.93;;;7.40;;
12042;SDS011;6082;49.306;12.862;2023-11-22T12:44:14;15.97;;;7.90;;
12042;SDS011;6082;49.306;12.862;2023-11-22T12:46:49;18.40;;;9.20;;
12042;SDS011;6082;49.306;12.862;2023-11-22T12:49:22;19.37;;;8.67;;
12042;SDS011;6082;49.306;12.862;2023-11-22T12:51:49;17.87;;;8.57;;
12042;SDS011;6082;49.306;12.862;2023-11-22T12:54:17;19.90;;;10.43;;
12042;SDS011;6082;49.306;12.862;2023-11-22T12:56:46;16.57;;;9.40;;
12042;SDS011;6082;49.306;12.862;2023-11-22T12:59:24;19.37;;;8.03;;
12042;SDS011;6082;49.306;12.862;2023-11-22T13:01:52;17.30;;;7.90;;
12042;SDS011;6082;49.306;12.862;2023-11-22T13:04:19;19.17;;;9.40;;
12042;SDS011;6082;49.306;12.862;2023-11-22T13:06:45;15.40;;;7.73;;
12042;SDS011;6082;49.306;12.862;2023-11-22T13:09:11;15.47;;;8.87;;
12042;SDS011;6082;49.306;12.862;2023-11-22T13:11:40;17.97;;;8.50;;
12042;SDS011;6082;49.306;12.862;2023-11-22T13:14:07;19.40;;;8.90;;
12042;SDS011;6082;49.306;12.862;2023-11-22T13:16:33;18.53;;;8.40;;
12042;SDS011;6082;49.306;12.862;2023-11-22T13:19:00;18.13;;;8.87;;
12042;SDS011;6082;49.306;12.862;2023-11-22T13:21:25;15.97;;;8.10;;
12042;SDS011;6082;49.306;12.862;2023-11-22T13:23:51;18.47;;;8.73;;
12042;SDS011;6082;49.306;12.862;2023-11-22T13:26:17;19.47;;;9.17;;
12042;SDS011;6082;49.306;12.862;2023-11-22T13:28:43;15.77;;;7.93;;
12042;SDS011;6082;49.306;12.862;2023-11-22T13:31:09;15.37;;;8.13;;
12042;SDS011;6082;49.306;12.862;2023-11-22T13:33:37;20.17;;;9.97;;
12042;SDS011;6082;49.306;12.862;2023-11-22T13:36:04;18.07;;;8.80;;
12042;SDS011;6082;49.306;12.862;2023-11-22T13:38:30;17.87;;;8.83;;
12042;SDS011;6082;49.306;12.862;2023-11-22T13:40:56;19.03;;;9.53;;
12042;SDS011;6082;49.306;12.862;2023-11-22T13:43:22;20.77;;;9.70;;
12042;SDS011;6082;49.306;12.862;2023-11-22T13:45:47;18.07;;;9.07;;
12042;SDS011;6082;49.306;12.862;2023-11-22T13:48:15;16.20;;;8.17;;
12042;SDS011;6082;49.306;12.862;2023-11-22T13:50:41;17.23;;;8.53;;
12042;SDS011;6082;49.306;12.862;2023-11-22T13:53:07;18.57;;;9.17;;
12042;SDS011;6082;49.306;12.862;2023-11-22T13:55:35;20.20;;;8.90;;
12042;SDS011;6082;49.306;12.862;2023-11-22T13:58:02;22.63;;;9.53;;
12042;SDS011;6082;49.306;12.862;2023-11-22T14:00:30;22.07;;;9.70;;
12042;SDS011;6082;49.306;12.862;2023-11-22T14:03:00;22.60;;;9.53;;
12042;SDS011;6082;49.306;12.862;2023-11-22T14:05:30;21.23;;;9.27;;
12042;SDS011;6082;49.306;12.862;2023-11-22T14:07:58;18.40;;;8.73;;
12042;SDS011;6082;49.306;12.862;2023-11-22T14:10:24;15.47;;;7.40;;
12042;SDS011;6082;49.306;12.862;2023-11-22T14:12:50;18.23;;;9.47;;
12042;SDS011;6082;49.306;12.862;2023-11-22T14:15:16;23.00;;;9.00;;
12042;SDS011;6082;49.306;12.862;2023-11-22T14:17:42;19.80;;;9.53;;
12042;SDS011;6082;49.306;12.862;2023-11-22T14:20:11;16.60;;;8.90;;
12042;SDS011;6082;49.306;12.862;2023-11-22T14:22:38;21.00;;;9.27;;
12042;SDS011;6082;49.306;12.862;2023-11-22T14:25:08;15.23;;;7.73;;
12042;SDS011;6082;49.306;12.862;2023-11-22T14:27:38;18.90;;;9.27;;
12042;SDS011;6082;49.306;12.862;2023-11-22T14:30:06;17.00;;;7.50;;
12042;SDS011;6082;49.306;12.862;2023-11-22T14:32:33;22.27;;;9.07;;
12042;SDS011;6082;49.306;12.862;2023-11-22T14:35:02;17.50;;;8.50;;
12042;SDS011;6082;49.306;12.862;2023-11-22T14:37:29;15.53;;;8.30;;
12042;SDS011;6082;49.306;12.862;2023-11-22T14:39:55;17.53;;;7.97;;
12042;SDS011;6082;49.306;12.862;2023-11-22T14:42:24;19.07;;;8.67;;